Time;durP1;ratioP1;P1;durP2;ratioP2;P2;SDS_P1;SDS_P2;PMS_P1;PMS_P2;Temp;Humidity;BMP_temperature;BMP_pressure;BME280_temperature;BME280_humidity;BME280_pressure;Samples;Min_cycle;Max_cycle;Signal;HPM_P1;HPM_P2
2023/04/23 00:01:45;;;;;;;6.90;5.50;;;;;;;;;;107962;282;28644;-29
2023/04/23 00:04:22;;;;;;;7.80;5.60;;;;;;;;;;107911;285;28070;-29
2023/04/23 00:06:57;;;;;;;8.30;5.40;;;;;;;;;;107930;282;27210;-29
2023/04/23 00:09:33;;;;;;;6.40;5.10;;;;;;;;;;107874;285;28107;-29
2023/04/23 00:12:09;;;;;;;8.10;5.50;;;;;;;;;;107909;285;29808;-29
2023/04/23 00:14:44;;;;;;;7.00;5.50;;;;;;;;;;107805;282;175586;-29
2023/04/23 00:17:21;;;;;;;6.60;5.50;;;;;;;;;;107846;284;27331;-29
2023/04/23 00:19:58;;;;;;;7.00;5.50;;;;;;;;;;107875;285;28086;-29
2023/04/23 00:22:34;;;;;;;7.00;5.60;;;;;;;;;;107920;285;28719;-29
2023/04/23 00:25:12;;;;;;;6.70;5.50;;;;;;;;;;107936;285;29157;-29
2023/04/23 00:27:47;;;;;;;7.70;5.70;;;;;;;;;;107958;285;27195;-29
2023/04/23 00:30:24;;;;;;;7.00;5.70;;;;;;;;;;107898;290;28118;-29
2023/04/23 00:33:02;;;;;;;6.90;5.50;;;;;;;;;;107946;283;28656;-29
2023/04/23 00:35:41;;;;;;;6.90;5.40;;;;;;;;;;107901;285;27706;-29
2023/04/23 00:38:19;;;;;;;6.80;5.50;;;;;;;;;;107904;285;27197;-29
2023/04/23 00:40:57;;;;;;;6.80;5.60;;;;;;;;;;107892;284;28471;-29
2023/04/23 00:43:31;;;;;;;7.40;5.40;;;;;;;;;;107911;285;28642;-29
2023/04/23 00:46:07;;;;;;;6.30;5.10;;;;;;;;;;107925;285;27970;-29
2023/04/23 00:48:45;;;;;;;6.80;5.40;;;;;;;;;;107912;285;27307;-29
2023/04/23 00:51:23;;;;;;;6.60;5.60;;;;;;;;;;107877;282;28233;-29
2023/04/23 00:53:59;;;;;;;7.40;5.50;;;;;;;;;;107908;277;28757;-29
2023/04/23 00:56:35;;;;;;;6.80;5.70;;;;;;;;;;107922;283;27968;-29
2023/04/23 00:59:09;;;;;;;7.00;5.20;;;;;;;;;;107948;283;27396;-29
2023/04/23 01:01:46;;;;;;;6.80;5.80;;;;;;;;;;107892;285;28098;-29
2023/04/23 01:04:24;;;;;;;6.80;5.50;;;;;;;;;;107903;285;28688;-29
2023/04/23 01:07:04;;;;;;;6.40;5.70;;;;;;;;;;107261;277;896207;-29
2023/04/23 01:09:42;;;;;;;6.90;5.50;;;;;;;;;;107908;285;27206;-29
2023/04/23 01:12:17;;;;;;;7.40;5.40;;;;;;;;;;107889;283;35166;-29
2023/04/23 01:14:53;;;;;;;7.70;5.80;;;;;;;;;;107912;283;28751;-29
2023/04/23 01:17:31;;;;;;;7.20;5.70;;;;;;;;;;107848;285;27627;-29
2023/04/23 01:20:09;;;;;;;7.30;5.70;;;;;;;;;;107884;285;26992;-29
2023/04/23 01:22:45;;;;;;;7.50;5.60;;;;;;;;;;107904;283;34471;-29
2023/04/23 01:25:21;;;;;;;7.10;5.60;;;;;;;;;;107890;285;28686;-29
2023/04/23 01:27:56;;;;;;;7.10;5.60;;;;;;;;;;107970;285;27878;-29
2023/04/23 01:30:31;;;;;;;7.00;5.70;;;;;;;;;;107882;285;27004;-29
2023/04/23 01:33:09;;;;;;;7.20;5.80;;;;;;;;;;107953;285;28233;-29
2023/04/23 01:35:44;;;;;;;7.30;5.80;;;;;;;;;;107960;283;28645;-29
2023/04/23 01:38:21;;;;;;;6.60;5.40;;;;;;;;;;107949;283;27624;-29
2023/04/23 01:40:56;;;;;;;7.10;5.80;;;;;;;;;;107497;283;433352;-29
2023/04/23 01:43:33;;;;;;;7.40;5.90;;;;;;;;;;107923;283;28072;-29
2023/04/23 01:46:08;;;;;;;7.40;5.80;;;;;;;;;;107953;285;28639;-29
2023/04/23 01:48:43;;;;;;;6.80;5.50;;;;;;;;;;107991;285;29016;-29
2023/04/23 01:51:18;;;;;;;7.20;5.80;;;;;;;;;;107930;281;27320;-29
2023/04/23 01:53:54;;;;;;;7.60;5.80;;;;;;;;;;107937;283;28108;-29
2023/04/23 01:56:32;;;;;;;7.20;6.00;;;;;;;;;;107908;285;28665;-29
2023/04/23 01:59:09;;;;;;;6.90;5.60;;;;;;;;;;107933;285;28963;-29
2023/04/23 02:01:48;;;;;;;7.20;5.90;;;;;;;;;;107887;285;27460;-29
2023/04/23 02:04:24;;;;;;;7.10;5.70;;;;;;;;;;107909;285;28073;-29
2023/04/23 02:07:00;;;;;;;7.60;5.90;;;;;;;;;;107902;285;28627;-29
2023/04/23 02:09:38;;;;;;;7.20;5.90;;;;;;;;;;107933;285;27994;-29
2023/04/23 02:12:16;;;;;;;7.40;5.60;;;;;;;;;;107848;285;27448;-29
2023/04/23 02:14:52;;;;;;;7.30;6.00;;;;;;;;;;107903;285;28100;-29
2023/04/23 02:17:28;;;;;;;7.20;5.90;;;;;;;;;;107890;285;28663;-29
2023/04/23 02:20:08;;;;;;;7.80;6.10;;;;;;;;;;107771;287;27924;-29
2023/04/23 02:22:47;;;;;;;6.80;5.50;;;;;;;;;;107870;283;27422;-29
2023/04/23 02:25:24;;;;;;;6.70;5.80;;;;;;;;;;107789;277;175627;-29
2023/04/23 02:28:05;;;;;;;7.50;6.00;;;;;;;;;;107876;285;28769;-29
2023/04/23 02:30:44;;;;;;;8.20;6.00;;;;;;;;;;107891;285;27865;-29
2023/04/23 02:33:24;;;;;;;7.10;5.80;;;;;;;;;;107847;283;27347;-29
2023/04/23 02:36:00;;;;;;;7.60;6.00;;;;;;;;;;107860;284;28171;-29
2023/04/23 02:38:40;;;;;;;7.10;5.70;;;;;;;;;;107869;285;28836;-29
2023/04/23 02:41:15;;;;;;;7.30;6.00;;;;;;;;;;107917;285;27870;-29
2023/04/23 02:43:52;;;;;;;7.20;6.10;;;;;;;;;;107903;284;26964;-29
2023/04/23 02:46:25;;;;;;;7.60;6.20;;;;;;;;;;107913;285;28263;-29
2023/04/23 02:49:00;;;;;;;6.80;5.70;;;;;;;;;;107918;285;28771;-29
2023/04/23 02:51:36;;;;;;;7.80;6.10;;;;;;;;;;107882;285;27935;-29
2023/04/23 02:54:12;;;;;;;7.00;5.90;;;;;;;;;;107852;285;28185;-29
2023/04/23 02:56:48;;;;;;;6.90;6.00;;;;;;;;;;107874;285;28126;-29
2023/04/23 02:59:25;;;;;;;6.90;5.90;;;;;;;;;;107895;285;28750;-29
2023/04/23 03:01:59;;;;;;;7.80;5.90;;;;;;;;;;107895;283;28148;-29
2023/04/23 03:04:34;;;;;;;7.70;6.20;;;;;;;;;;107881;285;33566;-29
2023/04/23 03:07:12;;;;;;;7.10;6.30;;;;;;;;;;107887;283;28380;-29
2023/04/23 03:09:49;;;;;;;7.30;6.00;;;;;;;;;;107874;285;28633;-29
2023/04/23 03:12:26;;;;;;;7.60;6.20;;;;;;;;;;107894;282;27859;-29
2023/04/23 03:15:03;;;;;;;7.80;6.00;;;;;;;;;;107856;283;33688;-29
2023/04/23 03:17:40;;;;;;;7.80;6.20;;;;;;;;;;107890;282;28125;-29
2023/04/23 03:20:16;;;;;;;7.90;6.00;;;;;;;;;;107885;285;27818;-29
2023/04/23 03:22:49;;;;;;;7.40;6.20;;;;;;;;;;107873;283;28084;-29
2023/04/23 03:25:27;;;;;;;7.90;6.40;;;;;;;;;;107863;283;27205;-29
2023/04/23 03:28:02;;;;;;;7.60;6.00;;;;;;;;;;107898;285;28264;-29
2023/04/23 03:30:36;;;;;;;7.70;6.20;;;;;;;;;;107895;290;28404;-29
2023/04/23 03:33:10;;;;;;;7.90;6.60;;;;;;;;;;107868;285;27956;-29
2023/04/23 03:35:46;;;;;;;7.80;6.20;;;;;;;;;;107914;283;27271;-29
2023/04/23 03:38:22;;;;;;;8.10;6.20;;;;;;;;;;107941;282;28114;-29
2023/04/23 03:40:59;;;;;;;7.60;6.30;;;;;;;;;;107957;285;28624;-29
2023/04/23 03:43:33;;;;;;;7.80;6.20;;;;;;;;;;107879;282;27896;-29
2023/04/23 03:46:11;;;;;;;7.60;6.10;;;;;;;;;;107915;285;27755;-29
2023/04/23 03:48:46;;;;;;;7.80;6.40;;;;;;;;;;107904;283;28234;-29
2023/04/23 03:51:21;;;;;;;7.10;5.90;;;;;;;;;;107884;285;28671;-29
2023/04/23 03:53:58;;;;;;;8.00;6.60;;;;;;;;;;107862;285;28000;-29
2023/04/23 03:56:34;;;;;;;7.80;6.40;;;;;;;;;;107958;286;27229;-29
2023/04/23 03:59:10;;;;;;;7.80;6.30;;;;;;;;;;107929;285;28398;-29
2023/04/23 04:01:47;;;;;;;7.60;6.20;;;;;;;;;;107766;285;175640;-29
2023/04/23 04:04:21;;;;;;;7.20;6.10;;;;;;;;;;107870;283;28294;-29
2023/04/23 04:06:57;;;;;;;7.80;6.70;;;;;;;;;;107873;285;27249;-29
2023/04/23 04:09:32;;;;;;;7.50;6.30;;;;;;;;;;107872;285;28109;-29
2023/04/23 04:12:10;;;;;;;8.20;6.40;;;;;;;;;;107880;282;28802;-29
2023/04/23 04:14:47;;;;;;;8.00;6.20;;;;;;;;;;107847;285;27924;-29
2023/04/23 04:17:21;;;;;;;7.90;6.70;;;;;;;;;;107880;284;27238;-29
2023/04/23 04:20:00;;;;;;;7.90;6.30;;;;;;;;;;107901;285;28140;-29
2023/04/23 04:22:34;;;;;;;7.80;6.30;;;;;;;;;;107909;285;28950;-29
2023/04/23 04:25:11;;;;;;;8.20;6.50;;;;;;;;;;107868;285;28027;-29
2023/04/23 04:27:47;;;;;;;8.20;6.70;;;;;;;;;;107925;285;27233;-29
2023/04/23 04:30:22;;;;;;;7.90;6.80;;;;;;;;;;107876;285;28131;-29
2023/04/23 04:32:57;;;;;;;8.00;6.20;;;;;;;;;;107896;282;28824;-29
2023/04/23 04:35:31;;;;;;;8.20;6.60;;;;;;;;;;107837;285;27906;-29
2023/04/23 04:38:07;;;;;;;8.50;6.30;;;;;;;;;;107914;282;27355;-29
2023/04/23 04:40:41;;;;;;;8.20;6.00;;;;;;;;;;107898;285;28413;-28
2023/04/23 04:43:17;;;;;;;8.20;6.70;;;;;;;;;;107873;285;28608;-28
2023/04/23 04:45:54;;;;;;;7.40;6.20;;;;;;;;;;107870;285;29155;-28
2023/04/23 04:48:31;;;;;;;7.50;6.00;;;;;;;;;;107885;285;27211;-29
2023/04/23 04:51:08;;;;;;;8.00;6.20;;;;;;;;;;107860;285;29326;-29
2023/04/23 04:53:42;;;;;;;7.70;6.20;;;;;;;;;;107912;285;29876;-29
2023/04/23 04:56:18;;;;;;;7.60;6.80;;;;;;;;;;107852;285;28363;-29
2023/04/23 04:58:54;;;;;;;8.30;6.50;;;;;;;;;;107895;285;27217;-29
2023/04/23 05:01:32;;;;;;;7.40;6.10;;;;;;;;;;107872;290;28368;-29
2023/04/23 05:04:08;;;;;;;7.70;6.50;;;;;;;;;;107905;285;28683;-29
2023/04/23 05:06:44;;;;;;;7.20;6.30;;;;;;;;;;107847;285;27617;-29
2023/04/23 05:09:20;;;;;;;7.60;6.50;;;;;;;;;;107885;285;27349;-29
2023/04/23 05:11:58;;;;;;;7.90;6.60;;;;;;;;;;107876;285;27927;-29
2023/04/23 05:14:32;;;;;;;8.00;6.70;;;;;;;;;;107937;283;28638;-29
2023/04/23 05:17:11;;;;;;;8.00;6.50;;;;;;;;;;107845;283;30091;-29
2023/04/23 05:19:46;;;;;;;8.20;6.80;;;;;;;;;;107719;284;27648;-29
2023/04/23 05:22:23;;;;;;;7.70;6.40;;;;;;;;;;107891;285;28109;-29
2023/04/23 05:24:59;;;;;;;7.30;6.30;;;;;;;;;;107874;285;28794;-29
2023/04/23 05:27:35;;;;;;;7.60;6.50;;;;;;;;;;107705;286;34011;-29
2023/04/23 05:30:12;;;;;;;7.50;6.40;;;;;;;;;;107894;277;27241;-29
2023/04/23 05:32:47;;;;;;;7.40;6.40;;;;;;;;;;107911;285;28136;-29
2023/04/23 05:35:22;;;;;;;8.50;6.70;;;;;;;;;;107810;285;28837;-29
2023/04/23 05:37:56;;;;;;;7.80;6.60;;;;;;;;;;107861;283;27976;-29
2023/04/23 05:40:34;;;;;;;7.70;6.30;;;;;;;;;;107882;285;27282;-29
2023/04/23 05:43:10;;;;;;;7.90;6.50;;;;;;;;;;107904;277;28230;-29
2023/04/23 05:45:46;;;;;;;8.50;6.50;;;;;;;;;;107854;282;28626;-29
2023/04/23 05:48:22;;;;;;;8.00;6.70;;;;;;;;;;107911;285;34364;-29
2023/04/23 05:50:58;;;;;;;8.30;6.60;;;;;;;;;;107918;285;27222;-29
2023/04/23 05:53:33;;;;;;;8.00;6.60;;;;;;;;;;107862;277;28074;-29
2023/04/23 05:56:08;;;;;;;7.30;6.40;;;;;;;;;;107839;282;28931;-29
2023/04/23 05:58:42;;;;;;;7.70;6.20;;;;;;;;;;107903;285;28024;-29
2023/04/23 06:01:16;;;;;;;8.30;6.50;;;;;;;;;;107915;285;27296;-29
2023/04/23 06:03:51;;;;;;;7.90;6.40;;;;;;;;;;107891;285;28223;-29
2023/04/23 06:06:28;;;;;;;7.70;6.60;;;;;;;;;;107872;285;28649;-29
2023/04/23 06:09:03;;;;;;;7.90;6.60;;;;;;;;;;107925;282;27903;-29
2023/04/23 06:11:37;;;;;;;7.50;6.40;;;;;;;;;;107955;283;28438;-29
2023/04/23 06:14:13;;;;;;;7.50;6.10;;;;;;;;;;107953;285;28091;-29
2023/04/23 06:16:48;;;;;;;7.40;6.30;;;;;;;;;;107776;285;175595;-29
2023/04/23 06:19:26;;;;;;;7.90;6.70;;;;;;;;;;107964;283;28447;-29
2023/04/23 06:22:01;;;;;;;7.90;6.30;;;;;;;;;;107906;283;28469;-29
2023/04/23 06:24:38;;;;;;;7.60;6.70;;;;;;;;;;107940;285;28301;-29
2023/04/23 06:27:15;;;;;;;8.50;7.00;;;;;;;;;;107860;285;28680;-29
2023/04/23 06:29:53;;;;;;;8.00;6.50;;;;;;;;;;107935;285;27959;-29
2023/04/23 06:32:28;;;;;;;8.50;6.90;;;;;;;;;;107935;285;28424;-29
2023/04/23 06:35:07;;;;;;;8.10;6.80;;;;;;;;;;107929;277;28263;-29
2023/04/23 06:37:43;;;;;;;8.30;6.50;;;;;;;;;;107906;285;28638;-29
2023/04/23 06:40:19;;;;;;;8.00;6.90;;;;;;;;;;107983;285;28006;-29
2023/04/23 06:42:55;;;;;;;8.30;6.60;;;;;;;;;;107948;277;28715;-29
2023/04/23 06:45:30;;;;;;;8.10;6.50;;;;;;;;;;107942;285;27844;-29
2023/04/23 06:48:05;;;;;;;8.00;6.60;;;;;;;;;;107957;285;28401;-29
2023/04/23 06:50:41;;;;;;;8.50;6.80;;;;;;;;;;107969;285;27746;-29
2023/04/23 06:53:15;;;;;;;7.70;6.40;;;;;;;;;;107959;285;27207;-29
2023/04/23 06:55:52;;;;;;;8.10;6.60;;;;;;;;;;107955;283;28107;-29
2023/04/23 06:58:31;;;;;;;8.20;6.40;;;;;;;;;;107908;285;28709;-29
2023/04/23 07:01:10;;;;;;;7.30;6.50;;;;;;;;;;107902;283;28099;-29
2023/04/23 07:03:48;;;;;;;7.90;6.30;;;;;;;;;;107918;282;27264;-29
2023/04/23 07:06:26;;;;;;;7.80;6.30;;;;;;;;;;107932;285;28062;-29
2023/04/23 07:09:01;;;;;;;7.80;6.40;;;;;;;;;;107897;285;28741;-29
2023/04/23 07:11:37;;;;;;;7.60;6.50;;;;;;;;;;107921;285;27859;-29
2023/04/23 07:14:13;;;;;;;7.70;6.30;;;;;;;;;;107932;285;27702;-29
2023/04/23 07:16:50;;;;;;;7.50;6.20;;;;;;;;;;107948;286;28100;-29
2023/04/23 07:19:27;;;;;;;7.10;6.00;;;;;;;;;;107900;277;28617;-29
2023/04/23 07:22:02;;;;;;;7.20;5.90;;;;;;;;;;107939;285;27916;-29
2023/04/23 07:24:40;;;;;;;7.20;6.20;;;;;;;;;;107942;283;27310;-29
2023/04/23 07:27:19;;;;;;;7.40;5.90;;;;;;;;;;107889;285;28136;-29
2023/04/23 07:29:58;;;;;;;7.60;5.80;;;;;;;;;;107897;285;29791;-29
2023/04/23 07:32:36;;;;;;;7.50;6.20;;;;;;;;;;107925;283;27987;-29
2023/04/23 07:35:11;;;;;;;7.10;6.10;;;;;;;;;;107775;285;27307;-29
2023/04/23 07:37:46;;;;;;;6.80;5.50;;;;;;;;;;107906;285;28149;-29
2023/04/23 07:40:22;;;;;;;7.30;6.00;;;;;;;;;;107862;290;29859;-29
2023/04/23 07:42:59;;;;;;;7.60;5.90;;;;;;;;;;107936;285;27943;-29
2023/04/23 07:45:36;;;;;;;7.70;5.80;;;;;;;;;;107922;283;27353;-29
2023/04/23 07:48:11;;;;;;;7.00;6.00;;;;;;;;;;107879;285;28199;-29
2023/04/23 07:50:48;;;;;;;7.20;5.90;;;;;;;;;;107886;282;36178;-29
2023/04/23 07:53:23;;;;;;;7.60;5.80;;;;;;;;;;107933;285;27653;-29
2023/04/23 07:56:00;;;;;;;6.80;5.40;;;;;;;;;;107969;285;27647;-29
2023/04/23 07:58:35;;;;;;;7.10;5.90;;;;;;;;;;107976;285;27937;-29
2023/04/23 08:01:10;;;;;;;8.40;5.90;;;;;;;;;;107961;285;28722;-29
2023/04/23 08:03:44;;;;;;;6.60;5.60;;;;;;;;;;107961;285;28006;-29
2023/04/23 08:06:22;;;;;;;6.50;5.30;;;;;;;;;;107960;285;27190;-29
2023/04/23 08:08:57;;;;;;;6.80;5.20;;;;;;;;;;107923;290;28144;-29
2023/04/23 08:11:32;;;;;;;6.90;5.50;;;;;;;;;;107985;286;28615;-29
2023/04/23 08:14:06;;;;;;;6.60;5.50;;;;;;;;;;107973;282;28028;-29
2023/04/23 08:16:40;;;;;;;6.80;5.50;;;;;;;;;;107977;285;27191;-29
2023/04/23 08:19:17;;;;;;;6.60;5.40;;;;;;;;;;107945;285;28120;-29
2023/04/23 08:21:52;;;;;;;6.90;5.60;;;;;;;;;;107955;284;28630;-29
2023/04/23 08:24:28;;;;;;;7.10;5.50;;;;;;;;;;107974;284;28012;-29
2023/04/23 08:27:02;;;;;;;6.30;5.20;;;;;;;;;;107968;285;26969;-29
2023/04/23 08:29:42;;;;;;;6.80;5.30;;;;;;;;;;107836;285;175553;-29
2023/04/23 08:32:18;;;;;;;6.70;5.30;;;;;;;;;;107980;285;28626;-29
2023/04/23 08:34:53;;;;;;;7.20;5.50;;;;;;;;;;107948;285;27908;-29
2023/04/23 08:37:27;;;;;;;6.50;5.30;;;;;;;;;;107935;285;27233;-29
2023/04/23 08:40:06;;;;;;;7.10;5.20;;;;;;;;;;107906;285;29227;-29
2023/04/23 08:42:50;;;;;;;6.90;5.40;;;;;;;;;;107940;283;28769;-29
2023/04/23 08:45:25;;;;;;;6.90;5.40;;;;;;;;;;107920;283;28089;-29
2023/04/23 08:48:02;;;;;;;6.80;5.40;;;;;;;;;;107833;285;175205;-29
2023/04/23 08:50:39;;;;;;;7.00;5.10;;;;;;;;;;107882;285;28109;-29
2023/04/23 08:53:20;;;;;;;6.60;5.20;;;;;;;;;;107902;287;28751;-29
2023/04/23 08:55:57;;;;;;;6.50;5.10;;;;;;;;;;107908;277;27981;-29
2023/04/23 08:58:34;;;;;;;6.70;5.00;;;;;;;;;;107928;285;27433;-29
2023/04/23 09:01:10;;;;;;;7.20;5.20;;;;;;;;;;107773;285;175193;-29
2023/04/23 09:03:46;;;;;;;7.40;5.30;;;;;;;;;;107922;277;29066;-29
2023/04/23 09:06:24;;;;;;;6.40;5.00;;;;;;;;;;107885;285;28186;-29
2023/04/23 09:09:00;;;;;;;7.40;5.20;;;;;;;;;;107902;283;27855;-29
2023/04/23 09:11:39;;;;;;;7.10;5.30;;;;;;;;;;107832;283;28359;-29
2023/04/23 09:14:17;;;;;;;7.70;6.40;;;;;;;;;;107911;283;28791;-29
2023/04/23 09:16:53;;;;;;;8.30;6.80;;;;;;;;;;107894;285;28195;-29
2023/04/23 09:19:32;;;;;;;9.20;7.60;;;;;;;;;;107924;283;27344;-29
2023/04/23 09:22:08;;;;;;;9.00;7.70;;;;;;;;;;107838;285;29226;-29
2023/04/23 09:24:44;;;;;;;9.40;8.10;;;;;;;;;;107907;284;28810;-29
2023/04/23 09:27:26;;;;;;;10.80;8.80;;;;;;;;;;107904;286;28163;-29
2023/04/23 09:30:03;;;;;;;9.80;8.30;;;;;;;;;;107882;283;27263;-29
2023/04/23 09:32:40;;;;;;;9.00;7.90;;;;;;;;;;103189;284;3011019;-29
2023/04/23 09:35:19;;;;;;;9.00;7.70;;;;;;;;;;107944;285;28630;-29
2023/04/23 09:37:57;;;;;;;8.40;7.20;;;;;;;;;;107895;283;28164;-29
2023/04/23 09:40:32;;;;;;;9.00;7.30;;;;;;;;;;107429;286;505052;-29
2023/04/23 09:43:12;;;;;;;8.30;7.20;;;;;;;;;;107868;284;34453;-29
2023/04/23 09:45:52;;;;;;;8.50;7.00;;;;;;;;;;107886;281;30677;-29
2023/04/23 09:48:26;;;;;;;9.10;6.90;;;;;;;;;;107899;281;28291;-29
2023/04/23 09:51:03;;;;;;;8.20;7.10;;;;;;;;;;107873;285;28101;-29
2023/04/23 09:53:44;;;;;;;7.70;6.40;;;;;;;;;;107891;277;28506;-29
2023/04/23 09:56:25;;;;;;;7.60;6.30;;;;;;;;;;107939;285;29628;-29
2023/04/23 09:59:01;;;;;;;7.60;6.40;;;;;;;;;;107914;285;28880;-29
2023/04/23 10:01:34;;;;;;;7.40;6.10;;;;;;;;;;107930;285;27434;-29
2023/04/23 10:04:11;;;;;;;7.20;5.90;;;;;;;;;;107943;283;28019;-29
2023/04/23 10:06:47;;;;;;;7.30;6.00;;;;;;;;;;107940;285;28912;-29
2023/04/23 10:09:45;;;;;;;7.60;6.10;;;;;;;;;;107961;285;28930;-29
2023/04/23 10:12:22;;;;;;;6.70;5.80;;;;;;;;;;107883;285;26750;-29
2023/04/23 10:15:02;;;;;;;6.70;5.40;;;;;;;;;;107932;283;28377;-29
2023/04/23 10:17:38;;;;;;;6.90;5.70;;;;;;;;;;107974;283;30614;-29
2023/04/23 10:20:13;;;;;;;6.10;5.40;;;;;;;;;;107922;282;27925;-29
2023/04/23 10:22:48;;;;;;;7.50;5.60;;;;;;;;;;107943;283;26818;-29
2023/04/23 10:25:25;;;;;;;7.70;5.50;;;;;;;;;;107944;285;28212;-29
2023/04/23 10:28:00;;;;;;;7.40;5.30;;;;;;;;;;107993;285;29633;-29
2023/04/23 10:30:34;;;;;;;7.20;5.30;;;;;;;;;;107989;285;28175;-29
2023/04/23 10:33:08;;;;;;;6.50;5.00;;;;;;;;;;107912;285;27361;-29
2023/04/23 10:36:01;;;;;;;6.40;4.90;;;;;;;;;;107971;283;29485;-29
2023/04/23 10:38:38;;;;;;;6.40;5.20;;;;;;;;;;107982;285;29057;-29
2023/04/23 10:41:34;;;;;;;6.90;4.90;;;;;;;;;;107999;285;28071;-29
2023/04/23 10:44:15;;;;;;;6.40;4.90;;;;;;;;;;107964;285;33258;-29
2023/04/23 10:47:00;;;;;;;6.40;4.70;;;;;;;;;;107975;284;28987;-29
2023/04/23 10:49:36;;;;;;;6.20;5.00;;;;;;;;;;108011;285;29644;-29
2023/04/23 10:52:15;;;;;;;5.90;4.90;;;;;;;;;;107910;285;29255;-28
2023/04/23 10:54:59;;;;;;;6.20;4.60;;;;;;;;;;107957;285;28063;-28
2023/04/23 10:58:00;;;;;;;6.10;4.70;;;;;;;;;;107999;285;28097;-28
2023/04/23 11:00:46;;;;;;;;;;;;;;;;;;107962;285;28873;-28
2023/04/23 11:03:41;;;;;;;6.50;4.60;;;;;;;;;;107972;283;28537;-28
2023/04/23 11:06:53;;;;;;;6.00;4.40;;;;;;;;;;107969;285;28767;-29
2023/04/23 11:09:40;;;;;;;5.70;4.70;;;;;;;;;;107997;282;29042;-29
2023/04/23 11:12:32;;;;;;;6.00;4.50;;;;;;;;;;107968;286;28798;-29
2023/04/23 11:15:19;;;;;;;5.80;4.50;;;;;;;;;;108059;285;34889;-29
2023/04/23 11:18:05;;;;;;;5.80;4.40;;;;;;;;;;107952;285;27328;-29
2023/04/23 11:20:40;;;;;;;5.90;4.50;;;;;;;;;;108030;285;28353;-29
2023/04/23 11:23:33;;;;;;;5.60;4.10;;;;;;;;;;107995;285;28887;-29
2023/04/23 11:26:09;;;;;;;5.90;4.60;;;;;;;;;;107984;285;28911;-29
2023/04/23 11:28:46;;;;;;;5.50;4.40;;;;;;;;;;108020;285;27448;-29
2023/04/23 11:31:20;;;;;;;5.70;4.40;;;;;;;;;;107836;285;29470;-29
2023/04/23 11:33:57;;;;;;;5.70;4.30;;;;;;;;;;107970;286;30816;-29
2023/04/23 11:36:33;;;;;;;5.20;4.50;;;;;;;;;;107995;283;28836;-29
2023/04/23 11:39:09;;;;;;;6.20;4.30;;;;;;;;;;108011;285;26882;-29
2023/04/23 11:41:45;;;;;;;5.70;4.20;;;;;;;;;;108013;283;29084;-29
2023/04/23 11:44:19;;;;;;;5.60;4.40;;;;;;;;;;107896;283;28987;-29
2023/04/23 11:46:56;;;;;;;5.30;3.90;;;;;;;;;;107991;285;28207;-29
2023/04/23 11:49:33;;;;;;;5.70;4.30;;;;;;;;;;107920;282;27316;-30
2023/04/23 11:52:08;;;;;;;5.40;4.00;;;;;;;;;;107910;285;28295;-30
2023/04/23 11:54:43;;;;;;;5.80;4.30;;;;;;;;;;107899;285;28940;-30
2023/04/23 11:57:20;;;;;;;5.60;4.20;;;;;;;;;;107871;282;28172;-30
2023/04/23 11:59:57;;;;;;;5.10;3.90;;;;;;;;;;107902;285;27332;-30
2023/04/23 12:02:35;;;;;;;5.50;4.00;;;;;;;;;;107871;285;28364;-30
2023/04/23 12:05:13;;;;;;;5.70;4.20;;;;;;;;;;107856;285;29036;-30
2023/04/23 12:07:52;;;;;;;5.10;4.00;;;;;;;;;;107890;285;28837;-30
2023/04/23 12:10:28;;;;;;;5.90;4.40;;;;;;;;;;107924;282;29072;-30
2023/04/23 12:13:02;;;;;;;5.20;4.00;;;;;;;;;;107990;285;28371;-30
2023/04/23 12:15:48;;;;;;;5.40;4.00;;;;;;;;;;107896;285;30190;-30
2023/04/23 12:18:29;;;;;;;5.30;4.00;;;;;;;;;;107966;285;28245;-30
2023/04/23 12:21:10;;;;;;;4.80;3.80;;;;;;;;;;107960;285;26770;-30
2023/04/23 12:23:44;;;;;;;5.70;4.00;;;;;;;;;;107971;282;28361;-30
2023/04/23 12:26:20;;;;;;;5.30;4.10;;;;;;;;;;107941;285;29285;-30
2023/04/23 12:28:58;;;;;;;5.00;3.80;;;;;;;;;;107950;285;28872;-30
2023/04/23 12:31:37;;;;;;;5.40;3.80;;;;;;;;;;107951;285;28379;-30
2023/04/23 12:34:15;;;;;;;6.00;4.20;;;;;;;;;;107914;282;28263;-30
2023/04/23 12:36:54;;;;;;;5.20;3.70;;;;;;;;;;107987;285;34890;-30
2023/04/23 12:39:37;;;;;;;5.30;4.00;;;;;;;;;;107857;285;175531;-30
2023/04/23 12:42:12;;;;;;;5.60;3.80;;;;;;;;;;107946;283;29672;-30
2023/04/23 12:44:50;;;;;;;5.90;4.10;;;;;;;;;;107900;285;28273;-30
2023/04/23 12:47:25;;;;;;;5.40;4.00;;;;;;;;;;107939;285;35296;-30
2023/04/23 12:50:02;;;;;;;5.40;3.90;;;;;;;;;;108032;285;28827;-30
2023/04/23 12:52:38;;;;;;;6.30;4.20;;;;;;;;;;107972;285;27408;-30
2023/04/23 12:55:13;;;;;;;6.10;4.10;;;;;;;;;;107915;285;28202;-30
2023/04/23 12:57:48;;;;;;;5.50;4.10;;;;;;;;;;107972;277;29587;-30
2023/04/23 13:00:25;;;;;;;5.40;4.00;;;;;;;;;;107968;285;28164;-30
2023/04/23 13:03:03;;;;;;;5.90;3.80;;;;;;;;;;107994;285;28153;-30
2023/04/23 13:05:38;;;;;;;5.60;3.90;;;;;;;;;;107982;283;28214;-30
2023/04/23 13:08:12;;;;;;;5.00;4.00;;;;;;;;;;107859;285;182032;-30
2023/04/23 13:10:49;;;;;;;6.00;3.70;;;;;;;;;;107978;283;28783;-30
2023/04/23 13:13:24;;;;;;;5.30;4.00;;;;;;;;;;107976;283;28004;-30
2023/04/23 13:16:02;;;;;;;6.00;3.90;;;;;;;;;;107943;284;29052;-30
2023/04/23 13:18:37;;;;;;;5.20;3.70;;;;;;;;;;107941;285;29339;-30
2023/04/23 13:21:16;;;;;;;5.90;3.80;;;;;;;;;;107974;277;28229;-30
2023/04/23 13:23:52;;;;;;;5.40;3.70;;;;;;;;;;107924;285;28069;-30
2023/04/23 13:26:32;;;;;;;5.10;3.50;;;;;;;;;;107962;285;28235;-30
2023/04/23 13:29:10;;;;;;;5.60;3.80;;;;;;;;;;108000;285;28931;-30
2023/04/23 13:31:45;;;;;;;6.80;3.70;;;;;;;;;;107958;285;28900;-30
2023/04/23 13:34:20;;;;;;;5.30;3.70;;;;;;;;;;107961;285;27408;-30
2023/04/23 13:36:54;;;;;;;4.90;3.80;;;;;;;;;;107932;285;28320;-30
2023/04/23 13:39:29;;;;;;;5.10;3.70;;;;;;;;;;107955;285;29500;-30
2023/04/23 13:42:04;;;;;;;5.30;3.70;;;;;;;;;;107987;283;28263;-30
2023/04/23 13:44:46;;;;;;;4.90;3.60;;;;;;;;;;107977;286;27768;-30
2023/04/23 13:47:22;;;;;;;5.40;3.70;;;;;;;;;;107926;281;28696;-30
2023/04/23 13:49:56;;;;;;;5.70;3.60;;;;;;;;;;107861;285;175537;-30
2023/04/23 13:52:30;;;;;;;4.90;3.40;;;;;;;;;;107977;285;28211;-30
2023/04/23 13:55:09;;;;;;;5.20;3.70;;;;;;;;;;107974;284;27381;-30
2023/04/23 13:57:43;;;;;;;5.20;3.70;;;;;;;;;;107944;285;28225;-30
2023/04/23 14:00:20;;;;;;;4.80;3.40;;;;;;;;;;107932;285;28910;-30
2023/04/23 14:02:57;;;;;;;5.10;3.60;;;;;;;;;;108011;285;29905;-30
2023/04/23 14:05:33;;;;;;;5.20;3.50;;;;;;;;;;107959;285;27877;-30
2023/04/23 14:08:11;;;;;;;5.30;3.70;;;;;;;;;;107789;285;175189;-30
2023/04/23 14:10:48;;;;;;;5.50;3.40;;;;;;;;;;107946;283;30376;-30
2023/04/23 14:13:23;;;;;;;5.70;3.60;;;;;;;;;;107989;285;28892;-30
2023/04/23 14:16:00;;;;;;;6.20;3.90;;;;;;;;;;107969;283;26825;-30
2023/04/23 14:18:37;;;;;;;5.30;3.60;;;;;;;;;;107961;285;28426;-30
2023/04/23 14:21:12;;;;;;;5.80;3.90;;;;;;;;;;107939;285;29027;-30
2023/04/23 14:23:59;;;;;;;5.70;3.80;;;;;;;;;;107929;277;28222;-30
2023/04/23 14:26:47;;;;;;;5.40;3.80;;;;;;;;;;107952;285;27280;-30
2023/04/23 14:29:40;;;;;;;5.40;3.60;;;;;;;;;;107873;274;35087;-30
2023/04/23 14:32:17;;;;;;;5.60;3.80;;;;;;;;;;107903;285;29752;-30
2023/04/23 14:34:51;;;;;;;6.30;3.80;;;;;;;;;;107925;283;28975;-30
2023/04/23 14:37:26;;;;;;;5.30;3.60;;;;;;;;;;107883;285;27561;-30
2023/04/23 14:40:01;;;;;;;5.70;3.70;;;;;;;;;;107914;283;35412;-30
2023/04/23 14:42:35;;;;;;;5.70;3.60;;;;;;;;;;107782;285;175090;-30
2023/04/23 14:45:12;;;;;;;6.10;3.70;;;;;;;;;;107907;285;28762;-30
2023/04/23 14:47:49;;;;;;;5.60;3.60;;;;;;;;;;107896;284;28152;-30
2023/04/23 14:50:23;;;;;;;6.20;3.90;;;;;;;;;;107910;283;35822;-30
2023/04/23 14:52:59;;;;;;;5.60;3.70;;;;;;;;;;107914;285;28735;-30
2023/04/23 14:55:35;;;;;;;5.90;4.10;;;;;;;;;;107908;286;28811;-30
2023/04/23 14:58:11;;;;;;;5.20;4.00;;;;;;;;;;107890;282;27573;-30
2023/04/23 15:00:48;;;;;;;6.10;4.30;;;;;;;;;;107903;283;34732;-30
2023/04/23 15:03:25;;;;;;;6.40;4.40;;;;;;;;;;107917;285;29548;-30
2023/04/23 15:06:00;;;;;;;5.80;4.00;;;;;;;;;;107952;285;28073;-30
2023/04/23 15:08:39;;;;;;;5.80;3.90;;;;;;;;;;107780;282;175550;-30
2023/04/23 15:11:16;;;;;;;5.20;3.90;;;;;;;;;;107907;285;28223;-30
2023/04/23 15:14:09;;;;;;;6.00;4.00;;;;;;;;;;107895;285;28881;-30
2023/04/23 15:16:44;;;;;;;;;;;;;;;;;;107817;285;175489;-30
2023/04/23 15:19:26;;;;;;;6.60;4.10;;;;;;;;;;107887;285;27321;-30
2023/04/23 15:22:02;;;;;;;5.70;4.10;;;;;;;;;;107935;285;28762;-30
2023/04/23 15:24:37;;;;;;;5.50;3.70;;;;;;;;;;107880;285;28639;-30
2023/04/23 15:27:14;;;;;;;6.10;4.00;;;;;;;;;;107874;285;28847;-30
2023/04/23 15:29:51;;;;;;;5.70;4.30;;;;;;;;;;107893;282;27333;-30
2023/04/23 15:32:28;;;;;;;6.20;4.60;;;;;;;;;;107888;277;28223;-30
2023/04/23 15:35:06;;;;;;;5.90;4.40;;;;;;;;;;107896;286;28658;-30
2023/04/23 15:37:42;;;;;;;5.70;4.10;;;;;;;;;;107911;277;28150;-30
2023/04/23 15:40:20;;;;;;;6.10;4.50;;;;;;;;;;107862;283;27339;-30
2023/04/23 15:42:54;;;;;;;6.10;4.20;;;;;;;;;;107902;282;28293;-30